createdAt,value
2023-01-15T00:00:02.998Z,98134.31
2023-01-15T00:02:33.217Z,98199.94
2023-01-15T00:05:03.209Z,98292.00
2023-01-15T00:07:32.865Z,98128.25
2023-01-15T00:10:00.639Z,98294.38
2023-01-15T00:12:28.342Z,98207.31
2023-01-15T00:14:57.964Z,98405.91
2023-01-15T00:17:25.883Z,98454.94
2023-01-15T00:19:53.634Z,98535.75
2023-01-15T00:22:21.323Z,98389.38
2023-01-15T00:25:10.010Z,98387.31
2023-01-15T00:27:40.803Z,98369.56
2023-01-15T00:30:12.249Z,98374.19
2023-01-15T00:32:40.363Z,98395.28
2023-01-15T00:35:09.440Z,98438.00
2023-01-15T00:37:37.088Z,98458.66
2023-01-15T00:40:07.217Z,98489.91
2023-01-15T00:42:34.986Z,98564.34
2023-01-15T00:45:09.918Z,98708.41
2023-01-15T00:47:38.510Z,98903.53
2023-01-15T00:50:07.919Z,99013.75
2023-01-15T00:52:35.871Z,99065.81
2023-01-15T00:55:04.105Z,99103.06
2023-01-15T00:57:33.383Z,99110.56
2023-01-15T01:00:01.222Z,99111.88
2023-01-15T01:02:29.197Z,99139.22
2023-01-15T01:04:57.032Z,99130.38
2023-01-15T01:07:24.777Z,99125.78
2023-01-15T01:09:52.456Z,99124.28
2023-01-15T01:12:21.601Z,99139.84
2023-01-15T01:14:50.636Z,99139.56
2023-01-15T01:17:18.366Z,99135.56
2023-01-15T01:19:46.172Z,99137.63
2023-01-15T01:22:13.886Z,99157.66
2023-01-15T01:24:41.777Z,99164.56
2023-01-15T01:27:09.498Z,99158.88
2023-01-15T01:29:37.290Z,99158.63
2023-01-15T01:32:06.996Z,99178.41
2023-01-15T01:34:35.661Z,99192.78
2023-01-15T01:37:03.375Z,99206.16
2023-01-15T01:39:31.079Z,99226.06
2023-01-15T01:41:58.792Z,99235.75
2023-01-15T01:45:06.329Z,99226.00
2023-01-15T01:47:36.704Z,99232.03
2023-01-15T01:50:10.321Z,99231.69
2023-01-15T01:52:42.055Z,99228.31
2023-01-15T01:55:11.460Z,99231.44
2023-01-15T01:57:41.824Z,99232.41
2023-01-15T02:00:11.565Z,99237.41
2023-01-15T02:02:47.208Z,99223.50
2023-01-15T02:05:21.597Z,99237.06
2023-01-15T02:07:49.281Z,99226.66
2023-01-15T02:10:18.082Z,99231.91
2023-01-15T02:12:53.046Z,99232.53
2023-01-15T02:15:29.331Z,99238.06
2023-01-15T02:18:06.982Z,99240.34
2023-01-15T02:20:40.534Z,99226.66
2023-01-15T02:23:24.609Z,99232.38
2023-01-15T02:26:27.239Z,99229.38
2023-01-15T02:28:59.772Z,99241.97
2023-01-15T02:31:35.237Z,99233.25
2023-01-15T02:34:07.792Z,99232.69
2023-01-15T02:36:40.517Z,99233.84
2023-01-15T02:39:16.048Z,99236.69
2023-01-15T02:41:47.722Z,99248.41
2023-01-15T02:44:21.147Z,99243.06
2023-01-15T02:46:51.076Z,99234.59
2023-01-15T02:49:23.685Z,99228.22
2023-01-15T02:51:57.111Z,99212.38
2023-01-15T02:54:30.390Z,99218.78
2023-01-15T02:57:01.004Z,99208.03
2023-01-15T02:59:34.725Z,99201.72
2023-01-15T03:02:07.206Z,99205.63
2023-01-15T03:04:42.597Z,99208.81
2023-01-15T03:07:15.745Z,99197.25
2023-01-15T03:09:44.769Z,99193.91
2023-01-15T03:12:18.382Z,99200.03
2023-01-15T03:14:55.411Z,99210.16
2023-01-15T03:17:28.001Z,99218.13
2023-01-15T03:20:03.313Z,99211.63
2023-01-15T03:22:34.355Z,99196.81
2023-01-15T03:25:04.935Z,99204.63
2023-01-15T03:27:38.107Z,99193.78
2023-01-15T03:30:10.114Z,99195.06
2023-01-15T03:32:38.601Z,99195.84
2023-01-15T03:35:10.607Z,99192.75
2023-01-15T03:37:44.328Z,99187.81
2023-01-15T03:40:13.460Z,99194.56
2023-01-15T03:42:50.083Z,99196.16
2023-01-15T03:45:27.535Z,99188.91
2023-01-15T03:48:02.851Z,99189.31
2023-01-15T03:50:41.741Z,99188.91
2023-01-15T03:53:16.292Z,99173.78
2023-01-15T03:55:56.011Z,99184.44
2023-01-15T03:58:30.376Z,99167.28
2023-01-15T04:01:04.785Z,99159.59
2023-01-15T04:03:35.256Z,99153.63
2023-01-15T04:06:05.937Z,99159.88
2023-01-15T04:08:38.640Z,99161.25
2023-01-15T04:11:06.704Z,99156.94
2023-01-15T04:13:42.428Z,99146.56
2023-01-15T04:16:29.241Z,99138.00
2023-01-15T04:18:57.613Z,99142.38
2023-01-15T04:21:26.680Z,99147.72
2023-01-15T04:23:54.809Z,99147.53
2023-01-15T04:26:22.925Z,99129.84
2023-01-15T04:28:50.962Z,99146.38
2023-01-15T04:31:19.061Z,99156.44
2023-01-15T04:33:48.348Z,99158.22
2023-01-15T04:36:16.296Z,99170.03
2023-01-15T04:38:44.212Z,99151.69
2023-01-15T04:41:30.110Z,99144.66
2023-01-15T04:44:10.421Z,99148.28
2023-01-15T04:46:40.590Z,99118.03
2023-01-15T04:49:11.620Z,99135.63
2023-01-15T04:51:39.969Z,99136.34
2023-01-15T04:54:10.418Z,99146.88
2023-01-15T04:56:40.872Z,99146.59
2023-01-15T04:59:11.227Z,99138.84
2023-01-15T05:01:39.604Z,99146.72
2023-01-15T05:04:09.478Z,99150.94
2023-01-15T05:06:37.691Z,99157.59
2023-01-15T05:09:06.903Z,99138.13
2023-01-15T05:11:37.065Z,99143.97
2023-01-15T05:14:05.357Z,99147.53
2023-01-15T05:16:35.172Z,99148.34
2023-01-15T05:19:04.958Z,99150.94
2023-01-15T05:21:36.563Z,99144.72
2023-01-15T05:24:08.708Z,99130.84
2023-01-15T05:26:37.150Z,99125.53
2023-01-15T05:29:06.114Z,99133.13
2023-01-15T05:31:34.693Z,99129.41
2023-01-15T05:34:02.800Z,99133.34
2023-01-15T05:36:32.808Z,99128.38
2023-01-15T05:39:02.664Z,99126.19
2023-01-15T05:41:49.255Z,99132.66
2023-01-15T05:44:19.731Z,99136.66
2023-01-15T05:46:48.882Z,99129.53
2023-01-15T05:49:19.402Z,99125.19
2023-01-15T05:51:47.675Z,99131.16
2023-01-15T05:54:19.151Z,99134.06
2023-01-15T05:56:47.821Z,99138.81
2023-01-15T05:59:16.928Z,99135.97
2023-01-15T06:01:45.234Z,99138.41
2023-01-15T06:04:14.641Z,99148.19
2023-01-15T06:06:43.382Z,99136.41
2023-01-15T06:09:11.812Z,99144.00
2023-01-15T06:11:41.653Z,99141.44
2023-01-15T06:14:09.673Z,99136.69
2023-01-15T06:16:39.159Z,99155.88
2023-01-15T06:19:09.257Z,99153.75
2023-01-15T06:21:37.425Z,99163.03
2023-01-15T06:24:05.844Z,99150.19
2023-01-15T06:26:33.754Z,99152.03
2023-01-15T06:29:02.941Z,99159.13
2023-01-15T06:31:32.517Z,99146.69
2023-01-15T06:34:00.602Z,99156.34
2023-01-15T06:36:29.362Z,99153.38
2023-01-15T06:38:57.371Z,99151.78
2023-01-15T06:41:44.360Z,99157.75
2023-01-15T06:44:32.416Z,99159.44
2023-01-15T06:47:22.685Z,99154.59
2023-01-15T06:49:53.390Z,99154.75
2023-01-15T06:52:21.432Z,99142.03
2023-01-15T06:54:49.534Z,99147.16
2023-01-15T06:57:18.869Z,99147.69
2023-01-15T06:59:48.343Z,99166.66
2023-01-15T07:02:17.944Z,99154.59
2023-01-15T07:04:46.065Z,99159.81
2023-01-15T07:07:15.193Z,99156.25
2023-01-15T07:09:43.114Z,99138.00
2023-01-15T07:12:11.046Z,99145.59
2023-01-15T07:14:39.002Z,99143.28
2023-01-15T07:17:08.283Z,99155.13
2023-01-15T07:19:36.376Z,99156.28
2023-01-15T07:22:04.698Z,99156.88
2023-01-15T07:24:32.869Z,99146.88
2023-01-15T07:27:00.979Z,99151.91
2023-01-15T07:29:30.799Z,99149.72
2023-01-15T07:32:02.252Z,99161.19
2023-01-15T07:34:31.450Z,99169.66
2023-01-15T07:36:59.202Z,99164.34
2023-01-15T07:39:28.347Z,99162.91
2023-01-15T07:42:13.767Z,99150.63
2023-01-15T07:44:58.935Z,99170.53
2023-01-15T07:47:45.237Z,99160.47
2023-01-15T07:50:16.565Z,99158.31
2023-01-15T07:52:44.654Z,99161.38
2023-01-15T07:55:13.640Z,99172.41
2023-01-15T07:57:42.695Z,99166.00
2023-01-15T08:00:14.560Z,99167.84
2023-01-15T08:02:42.855Z,99178.25
2023-01-15T08:05:12.430Z,99192.16
2023-01-15T08:07:42.913Z,99184.78
2023-01-15T08:10:12.612Z,99181.81
2023-01-15T08:12:58.172Z,99180.91
2023-01-15T08:15:26.153Z,99174.94
2023-01-15T08:17:54.133Z,99169.47
2023-01-15T08:20:24.350Z,99166.34
2023-01-15T08:22:54.020Z,99165.31
2023-01-15T08:25:24.322Z,99169.38
2023-01-15T08:27:53.126Z,99153.19
2023-01-15T08:30:23.725Z,99155.63
2023-01-15T08:32:51.739Z,99166.69
2023-01-15T08:35:19.759Z,99154.19
2023-01-15T08:37:47.714Z,99174.41
2023-01-15T08:40:17.023Z,99185.59
2023-01-15T08:42:45.027Z,99175.78
2023-01-15T08:45:13.103Z,99177.09
2023-01-15T08:47:40.922Z,99178.91
2023-01-15T08:50:10.334Z,99187.66
2023-01-15T08:52:39.420Z,99187.72
2023-01-15T08:55:08.343Z,99173.16
2023-01-15T08:57:38.561Z,99170.56
2023-01-15T09:00:08.157Z,99187.06
2023-01-15T09:02:36.112Z,99186.81
2023-01-15T09:05:04.276Z,99196.28
2023-01-15T09:07:32.304Z,99184.47
2023-01-15T09:10:00.252Z,99192.19
2023-01-15T09:12:29.368Z,99181.91
2023-01-15T09:15:02.755Z,99201.72
2023-01-15T09:17:32.551Z,99190.84
2023-01-15T09:20:03.197Z,99207.41
2023-01-15T09:22:31.531Z,99192.41
2023-01-15T09:24:59.921Z,99202.88
2023-01-15T09:27:28.691Z,99202.97
2023-01-15T09:29:58.841Z,99207.84
2023-01-15T09:32:26.857Z,99205.19
2023-01-15T09:34:54.824Z,99208.41
2023-01-15T09:37:22.898Z,99200.22
2023-01-15T09:39:50.964Z,99204.22
2023-01-15T09:42:33.176Z,99201.94
2023-01-15T09:45:18.351Z,99207.34
2023-01-15T09:47:58.936Z,99201.09
2023-01-15T09:50:36.174Z,99196.56
2023-01-15T09:53:18.854Z,99200.16
2023-01-15T09:55:49.384Z,99188.38
2023-01-15T09:58:20.679Z,99187.94
2023-01-15T10:00:51.417Z,99184.91
2023-01-15T10:03:30.116Z,99190.16
2023-01-15T10:06:06.599Z,99167.19
2023-01-15T10:08:38.212Z,99171.09
2023-01-15T10:11:22.132Z,99188.91
2023-01-15T10:13:54.796Z,99181.50
2023-01-15T10:16:26.833Z,99192.66
2023-01-15T10:18:55.827Z,99196.47
2023-01-15T10:21:31.139Z,99182.69
2023-01-15T10:24:06.593Z,99203.13
2023-01-15T10:26:38.030Z,99219.38
2023-01-15T10:29:16.688Z,99227.88
2023-01-15T10:47:49.449Z,99204.28
2023-01-15T10:50:20.306Z,99211.31
2023-01-15T10:52:51.627Z,99209.72
2023-01-15T10:55:24.826Z,99202.34
2023-01-15T10:58:09.957Z,99196.44
2023-01-15T11:00:39.903Z,99196.41
2023-01-15T11:03:16.548Z,99187.19
2023-01-15T11:05:45.891Z,99203.31
2023-01-15T11:11:20.102Z,99196.28
2023-01-15T11:14:14.789Z,99203.44
2023-01-15T11:17:01.634Z,99214.78
2023-01-15T11:19:38.207Z,99197.13
2023-01-15T11:22:11.909Z,99195.66
2023-01-15T11:24:47.676Z,99176.91
2023-01-15T11:27:19.143Z,99184.84
2023-01-15T11:29:52.470Z,99173.84
2023-01-15T11:32:31.033Z,99193.75
2023-01-15T11:35:01.564Z,99180.94
2023-01-15T11:37:30.262Z,99211.69
2023-01-15T11:40:05.685Z,99198.88
2023-01-15T11:42:51.343Z,99189.31
2023-01-15T11:45:38.764Z,99192.44
2023-01-15T11:48:34.199Z,99196.38
2023-01-15T11:51:08.549Z,99194.06
2023-01-15T11:53:41.988Z,99219.16
2023-01-15T11:56:14.434Z,99198.41
2023-01-15T11:58:46.520Z,99200.53
2023-01-15T12:01:17.116Z,99191.19
2023-01-15T12:03:45.362Z,99207.13
2023-01-15T12:06:17.057Z,99210.31
2023-01-15T12:08:50.539Z,99210.34
2023-01-15T12:11:40.905Z,99224.16
2023-01-15T12:14:32.632Z,99208.63
2023-01-15T12:17:07.659Z,99216.31
2023-01-15T12:19:45.079Z,99205.09
2023-01-15T12:22:33.206Z,99206.63
2023-01-15T12:25:15.192Z,99203.44
2023-01-15T12:27:53.907Z,99190.84
2023-01-15T12:30:28.884Z,99198.56
2023-01-15T12:33:04.978Z,99205.69
2023-01-15T12:35:35.950Z,99189.91
2023-01-15T12:38:14.529Z,99202.38
2023-01-15T12:40:49.075Z,99194.22
2023-01-15T12:43:40.567Z,99183.72
2023-01-15T12:46:12.332Z,99167.34
2023-01-15T12:48:47.080Z,99185.91
2023-01-15T12:51:24.523Z,99168.16
2023-01-15T12:54:00.183Z,99176.84
2023-01-15T12:56:32.029Z,99157.78
2023-01-15T12:59:06.973Z,99159.69
2023-01-15T13:01:39.940Z,99167.97
2023-01-15T13:04:14.055Z,99163.94
2023-01-15T13:06:48.597Z,99174.81
2023-01-15T13:09:30.531Z,99184.00
2023-01-15T13:11:58.478Z,99180.97
2023-01-15T13:14:26.669Z,99180.78
2023-01-15T13:16:59.343Z,99186.75
2023-01-15T13:19:36.100Z,99179.28
2023-01-15T13:22:08.239Z,99194.91
2023-01-15T13:25:02.722Z,99171.34
2023-01-15T13:27:50.752Z,99179.78
2023-01-15T13:30:34.780Z,99179.53
2023-01-15T13:33:19.723Z,99176.34
2023-01-15T13:35:50.856Z,99167.06
2023-01-15T13:38:22.266Z,99166.69
2023-01-15T13:40:53.912Z,99156.94
2023-01-15T13:43:33.560Z,99166.25
2023-01-15T13:46:04.279Z,99169.22
2023-01-15T13:48:36.493Z,99168.88
2023-01-15T13:51:06.892Z,99171.44
2023-01-15T13:53:38.257Z,99158.38
2023-01-15T13:56:10.671Z,99150.03
2023-01-15T13:58:42.779Z,99151.72
2023-01-15T14:01:25.047Z,99158.16
2023-01-15T14:04:01.153Z,99161.88
2023-01-15T14:06:40.865Z,99156.84
2023-01-15T14:09:16.685Z,99170.69
2023-01-15T14:12:02.755Z,99156.38
2023-01-15T14:15:00.568Z,99167.88
2023-01-15T14:17:49.313Z,99167.50
2023-01-15T14:20:37.915Z,99154.69
2023-01-15T14:23:25.410Z,99131.31
2023-01-15T14:26:03.741Z,99165.38
2023-01-15T14:28:47.856Z,99178.75
2023-01-15T14:31:37.920Z,99159.69
2023-01-15T14:34:14.557Z,99175.41
2023-01-15T14:36:50.039Z,99158.59
2023-01-15T14:39:39.625Z,99170.03
2023-01-15T14:42:28.751Z,99170.94
2023-01-15T14:45:04.129Z,99170.56
2023-01-15T14:47:36.760Z,99163.63
2023-01-15T14:50:26.349Z,99191.09
2023-01-15T14:52:56.116Z,99190.75
2023-01-15T14:55:24.258Z,99188.66
2023-01-15T14:57:59.357Z,99186.16
2023-01-15T15:00:35.102Z,99201.25
2023-01-15T15:03:06.190Z,99200.56
2023-01-15T15:05:35.449Z,99199.91
2023-01-15T15:08:05.350Z,99206.84
2023-01-15T15:10:36.992Z,99208.75
2023-01-15T15:13:14.720Z,99204.56
2023-01-15T15:15:51.805Z,99213.75
2023-01-15T15:18:29.382Z,99205.94
2023-01-15T15:54:35.422Z,99232.44
2023-01-15T15:57:09.334Z,99241.91
2023-01-15T15:59:38.962Z,99222.78
2023-01-15T16:02:17.825Z,99208.81
2023-01-15T16:04:46.864Z,99225.00
2023-01-15T16:07:15.791Z,99240.06
2023-01-15T16:09:50.395Z,99237.31
2023-01-15T16:12:18.688Z,99239.88
2023-01-15T16:14:46.616Z,99242.75
2023-01-15T16:17:16.120Z,99247.81
2023-01-15T16:19:44.752Z,99252.28
2023-01-15T16:22:16.875Z,99247.16
2023-01-15T16:24:56.647Z,99262.19
2023-01-15T16:27:28.036Z,99247.34
2023-01-15T16:29:56.074Z,99253.19
2023-01-15T16:32:26.122Z,99255.56
2023-01-15T16:35:01.524Z,99263.78
2023-01-15T16:37:31.290Z,99252.84
2023-01-15T16:40:03.804Z,99263.44
2023-01-15T16:42:36.521Z,99254.44
2023-01-15T16:45:14.745Z,99266.25
2023-01-15T16:48:01.929Z,99268.91
2023-01-15T16:50:33.995Z,99261.97
2023-01-15T16:53:02.786Z,99271.41
2023-01-15T16:55:41.497Z,99261.09
2023-01-15T16:58:20.938Z,99258.25
2023-01-15T17:00:52.891Z,99239.41
2023-01-15T17:03:22.591Z,99278.91
2023-01-15T17:05:52.917Z,99264.75
2023-01-15T17:08:22.559Z,99279.81
2023-01-15T17:10:57.494Z,99275.59
2023-01-15T17:13:32.422Z,99271.41
2023-01-15T17:16:06.989Z,99269.19
2023-01-15T17:18:34.994Z,99275.84
2023-01-15T17:21:02.999Z,99290.59
2023-01-15T17:23:36.572Z,99297.44
2023-01-15T17:26:16.574Z,99295.00
2023-01-15T17:28:44.667Z,99298.69
2023-01-15T17:31:23.056Z,99292.56
2023-01-15T17:33:51.588Z,99295.06
2023-01-15T17:36:20.024Z,99302.16
2023-01-15T17:38:48.158Z,99310.38
2023-01-15T17:41:18.683Z,99315.69
2023-01-15T17:43:49.589Z,99304.25
2023-01-15T17:46:20.430Z,99324.84
2023-01-15T17:48:48.243Z,99310.03
2023-01-15T17:51:18.290Z,99321.38
2023-01-15T17:53:46.284Z,99312.97
2023-01-15T17:56:31.302Z,99309.91
2023-01-15T17:59:18.136Z,99320.97
2023-01-15T18:02:05.685Z,99321.44
2023-01-15T18:04:55.867Z,99338.72
2023-01-15T18:07:28.201Z,99319.53
2023-01-15T18:09:57.268Z,99316.81
2023-01-15T18:12:25.097Z,99321.09
2023-01-15T18:14:54.443Z,99322.16
2023-01-15T18:17:22.303Z,99323.78
2023-01-15T18:19:50.431Z,99325.06
2023-01-15T18:22:19.002Z,99324.94
2023-01-15T18:24:46.742Z,99335.75
2023-01-15T18:27:14.514Z,99332.91
2023-01-15T18:29:42.847Z,99333.41
2023-01-15T18:32:11.906Z,99341.91
2023-01-15T18:34:39.717Z,99331.50
2023-01-15T18:37:08.136Z,99341.97
2023-01-15T18:39:37.131Z,99350.22
2023-01-15T18:42:22.864Z,99343.38
2023-01-15T18:45:08.491Z,99361.69
2023-01-15T18:47:38.091Z,99364.38
2023-01-15T18:50:06.823Z,99362.88
2023-01-15T18:52:51.050Z,99367.41
2023-01-15T18:55:20.247Z,99369.63
2023-01-15T18:57:48.439Z,99371.81
2023-01-15T19:00:17.972Z,99366.75
2023-01-15T19:02:47.565Z,99364.34
2023-01-15T19:05:17.198Z,99363.16
2023-01-15T19:07:45.786Z,99359.94
2023-01-15T19:10:15.271Z,99362.09
2023-01-15T19:12:44.757Z,99359.13
2023-01-15T19:15:32.109Z,99377.19
2023-01-15T19:18:19.029Z,99378.19
2023-01-15T19:20:47.271Z,99368.66
2023-01-15T19:23:15.594Z,99367.44
2023-01-15T19:25:45.517Z,99375.75
2023-01-15T19:28:16.845Z,99390.44
2023-01-15T19:31:06.572Z,99395.06
2023-01-15T19:33:36.566Z,99388.53
2023-01-15T19:36:07.171Z,99391.25
2023-01-15T19:38:36.831Z,99403.69
2023-01-15T19:41:28.200Z,99397.28
2023-01-15T19:44:14.138Z,99404.44
2023-01-15T19:46:59.934Z,99404.59
2023-01-15T19:49:51.555Z,99418.69
2023-01-15T19:52:38.774Z,99406.94
2023-01-15T19:55:10.843Z,99401.22
2023-01-15T19:57:38.871Z,99416.75
2023-01-15T20:00:08.723Z,99410.22
2023-01-15T20:02:37.532Z,99407.13
2023-01-15T20:05:08.422Z,99406.56
2023-01-15T20:07:36.244Z,99393.59
2023-01-15T20:10:05.024Z,99406.31
2023-01-15T20:12:51.059Z,99423.13
2023-01-15T20:15:19.300Z,99420.53
2023-01-15T20:17:47.288Z,99420.66
2023-01-15T20:20:16.549Z,99408.13
2023-01-15T20:22:46.973Z,99414.47
2023-01-15T20:25:15.085Z,99412.16
2023-01-15T20:27:42.996Z,99419.84
2023-01-15T20:30:14.387Z,99412.88
2023-01-15T20:32:44.927Z,99411.69
2023-01-15T20:35:15.128Z,99414.22
2023-01-15T20:37:44.226Z,99411.19
2023-01-15T20:40:13.115Z,99418.13
2023-01-15T20:42:58.164Z,99412.72
2023-01-15T20:45:26.599Z,99420.53
2023-01-15T20:48:08.369Z,99410.41
2023-01-15T20:50:37.454Z,99408.19
2023-01-15T20:53:07.956Z,99408.63
2023-01-15T20:55:53.844Z,99399.56
2023-01-15T20:58:25.344Z,99395.81
2023-01-15T21:00:53.745Z,99399.00
2023-01-15T21:03:21.554Z,99398.16
2023-01-15T21:05:49.402Z,99405.53
2023-01-15T21:08:20.963Z,99399.22
2023-01-15T21:10:53.091Z,99392.06
2023-01-15T21:13:22.693Z,99387.88
2023-01-15T21:15:58.881Z,99387.94
2023-01-15T21:18:27.629Z,99389.13
2023-01-15T21:20:55.457Z,99386.13
2023-01-15T21:23:25.213Z,99376.72
2023-01-15T21:26:00.023Z,99383.75
2023-01-15T21:28:27.857Z,99372.38
2023-01-15T21:30:55.546Z,99376.56
2023-01-15T21:33:23.315Z,99366.28
2023-01-15T21:35:50.986Z,99370.44
2023-01-15T21:38:18.683Z,99372.25
2023-01-15T21:40:47.771Z,99358.13
2023-01-15T21:43:33.178Z,99363.75
2023-01-15T21:46:05.014Z,99356.53
2023-01-15T21:48:33.369Z,99358.47
2023-01-15T21:51:05.137Z,99368.25
2023-01-15T21:53:33.022Z,99363.06
2023-01-15T21:56:02.159Z,99370.53
2023-01-15T21:58:29.959Z,99366.91
2023-01-15T22:00:58.064Z,99377.59
2023-01-15T22:03:25.999Z,99372.38
2023-01-15T22:05:53.789Z,99376.66
2023-01-15T22:08:21.540Z,99371.66
2023-01-15T22:10:49.837Z,99373.88
2023-01-15T22:13:18.966Z,99366.50
2023-01-15T22:15:54.603Z,99372.22
2023-01-15T22:18:25.653Z,99367.97
2023-01-15T22:20:58.101Z,99370.13
2023-01-15T22:23:25.870Z,99374.69
2023-01-15T22:25:53.882Z,99379.09
2023-01-15T22:28:23.124Z,99367.22
2023-01-15T22:30:51.166Z,99373.09
2023-01-15T22:33:19.032Z,99371.31
2023-01-15T22:35:56.284Z,99362.41
2023-01-15T22:38:24.081Z,99364.78
2023-01-15T22:40:51.893Z,99359.50
2023-01-15T22:43:19.764Z,99363.19
2023-01-15T22:45:48.941Z,99353.41
2023-01-15T22:48:16.863Z,99349.66
2023-01-15T22:50:44.668Z,99346.69
2023-01-15T22:53:12.393Z,99347.22
2023-01-15T22:55:40.116Z,99345.72
2023-01-15T22:58:08.012Z,99334.41
2023-01-15T23:00:35.776Z,99326.84
2023-01-15T23:03:08.182Z,99331.25
2023-01-15T23:05:38.826Z,99326.19
2023-01-15T23:08:07.640Z,99319.88
2023-01-15T23:10:35.547Z,99317.88
2023-01-15T23:13:03.316Z,99319.41
2023-01-15T23:15:31.096Z,99313.22
2023-01-15T23:17:58.774Z,99319.50
2023-01-15T23:20:27.852Z,99307.94
2023-01-15T23:22:55.702Z,99309.75
2023-01-15T23:25:23.718Z,99308.72
2023-01-15T23:27:51.560Z,99306.66
2023-01-15T23:30:19.538Z,99294.44
2023-01-15T23:32:47.277Z,99302.13
2023-01-15T23:35:15.163Z,99298.22
2023-01-15T23:37:44.438Z,99291.59
2023-01-15T23:40:13.234Z,99292.44
2023-01-15T23:42:58.567Z,99284.84
2023-01-15T23:45:43.938Z,99272.75
2023-01-15T23:48:11.793Z,99280.78
2023-01-15T23:50:39.519Z,99270.91
2023-01-15T23:53:08.577Z,99280.59
2023-01-15T23:55:36.376Z,99271.25
2023-01-15T23:58:04.303Z,99261.81
